.
WxDataArchive / Data Records for 2010-03-20
2010-03-19 March 2010 2010-03-21

Data Records for Saturday, 20 March 2010

Time	Temp	Chill	HIndex	Humid	Dewpt	 Wind 	HiWind	WindDir	Rain 	Barom 
-----	----	-----	------	-----	-----	------	------	-------	-----	----- 
00:00	49.5	49.5	49.5	62	37.0	0	0	---	0.00	29.937 
00:05	49.2	49.2	49.2	63	37.1	0	0	---	0.00	29.937 
00:10	48.8	48.8	48.8	64	37.2	0	0	---	0.00	29.937 
00:15	48.2	48.2	48.2	65	37.0	0	0	---	0.00	29.935 
00:20	47.9	47.9	47.9	66	37.1	0	0	---	0.00	29.935 
00:25	47.6	47.6	47.6	67	37.2	0	1	248	0.00	29.935 
00:30	47.6	47.6	47.6	68	37.6	0	1	248	0.00	29.935 
00:35	47.6	47.6	47.6	68	37.6	0	1	248	0.00	29.935 
00:40	47.6	47.6	47.6	68	37.6	0	0	---	0.00	29.935 
00:45	47.6	47.6	47.6	68	37.6	0	0	---	0.00	29.935 
00:50	47.4	47.4	47.4	68	37.4	0	0	---	0.00	29.935 
00:55	47.3	47.3	47.3	68	37.3	0	0	---	0.00	29.935 
01:00	47.0	47.0	47.0	69	37.4	0	0	---	0.00	29.936 
01:05	46.8	46.8	46.8	69	37.2	0	0	---	0.00	29.936 
01:10	46.7	46.7	46.7	69	37.1	0	1	248	0.00	29.936 
01:15	46.5	46.5	46.5	70	37.3	0	0	---	0.00	29.936 
01:20	46.2	46.2	46.2	70	37.0	0	0	---	0.00	29.936 
01:25	46.0	46.0	46.0	71	37.1	0	0	---	0.00	29.936 
01:30	45.5	45.5	45.5	71	36.7	0	0	---	0.00	29.937 
01:35	45.1	45.1	45.1	72	36.6	0	0	---	0.00	29.937 
01:40	44.8	44.8	44.8	73	36.7	0	0	---	0.00	29.937 
01:45	44.3	44.3	44.3	74	36.5	0	0	---	0.00	29.943 
01:50	44.1	44.1	44.1	74	36.4	0	0	---	0.00	29.943 
01:55	43.8	43.8	43.8	75	36.4	0	0	---	0.00	29.943 
02:00	43.6	43.6	43.6	76	36.5	0	0	---	0.00	29.943 
02:05	43.6	43.6	43.6	77	36.9	0	0	---	0.00	29.943 
02:10	43.5	43.5	43.5	76	36.4	0	0	---	0.00	29.943 
02:15	43.3	43.3	43.3	76	36.3	0	0	---	0.00	29.943 
02:20	42.9	42.9	42.9	77	36.2	0	0	---	0.00	29.943 
02:25	42.6	42.6	42.6	77	35.9	0	0	---	0.00	29.943 
02:30	42.5	42.5	42.5	78	36.1	0	0	---	0.00	29.949 
02:35	42.2	42.2	42.2	79	36.2	0	0	---	0.00	29.949 
02:40	42.1	42.1	42.1	79	36.1	0	0	---	0.00	29.949 
02:45	41.8	41.8	41.8	80	36.1	0	0	---	0.00	29.951 
02:50	41.6	41.6	41.6	81	36.2	0	0	---	0.00	29.951 
02:55	41.5	41.5	41.5	81	36.1	0	0	---	0.00	29.951 
03:00	41.2	41.2	41.2	82	36.1	0	0	---	0.00	29.949 
03:05	41.1	41.1	41.1	82	36.0	0	0	---	0.00	29.949 
03:10	40.9	40.9	40.9	83	36.1	0	0	---	0.00	29.949 
03:15	40.8	40.8	40.8	83	36.0	0	0	---	0.00	29.949 
03:20	40.6	40.6	40.6	83	35.8	0	0	---	0.00	29.949 
03:25	40.5	40.5	40.5	83	35.8	0	0	---	0.00	29.949 
03:30	40.3	40.3	40.3	84	35.9	0	0	---	0.00	29.945 
03:35	40.2	40.2	40.2	84	35.8	0	0	---	0.00	29.945 
03:40	40.2	40.2	40.2	84	35.8	0	0	---	0.00	29.945 
03:45	40.1	40.1	40.1	84	35.7	0	0	---	0.00	29.943 
03:50	39.9	39.9	39.9	84	35.5	0	0	---	0.00	29.943 
03:55	39.8	39.8	39.8	84	35.4	0	0	---	0.00	29.943 
04:00	39.6	39.6	39.6	85	35.5	0	0	---	0.00	29.942 
04:05	39.5	39.5	39.5	85	35.4	0	0	---	0.00	29.942 
04:10	39.5	39.5	39.5	85	35.4	0	0	---	0.00	29.942 
04:15	39.3	39.3	39.3	85	35.2	0	0	---	0.00	29.941 
04:20	39.3	39.3	39.3	86	35.5	0	0	---	0.00	29.941 
04:25	39.2	39.2	39.2	86	35.4	0	0	---	0.00	29.941 
04:30	39.2	39.2	39.2	86	35.4	0	0	---	0.00	29.939 
04:35	39.2	39.2	39.2	86	35.4	0	0	---	0.00	29.939 
04:40	39.1	39.1	39.1	86	35.3	0	0	---	0.00	29.939 
04:45	38.9	38.9	38.9	86	35.1	0	0	---	0.00	29.937 
04:50	38.8	38.8	38.8	87	35.3	0	0	---	0.00	29.937 
04:55	38.6	38.6	38.6	87	35.1	0	0	---	0.00	29.937 
05:00	38.5	38.5	38.5	87	35.0	0	0	---	0.00	29.939 
05:05	38.3	38.3	38.3	87	34.8	0	0	---	0.00	29.939 
05:10	38.0	38.0	38.0	87	34.5	0	0	---	0.00	29.939 
05:15	37.9	37.9	37.9	87	34.4	0	0	---	0.00	29.935 
05:20	37.8	37.8	37.8	88	34.6	0	0	---	0.00	29.935 
05:25	37.8	37.8	37.8	88	34.6	0	0	---	0.00	29.935 
05:30	37.8	37.8	37.8	88	34.6	0	0	---	0.00	29.935 
05:35	37.6	37.6	37.6	88	34.4	0	0	---	0.00	29.935 
05:40	37.6	37.6	37.6	88	34.4	0	0	---	0.00	29.935 
05:45	37.5	37.5	37.5	88	34.3	0	0	---	0.00	29.936 
05:50	37.2	37.2	37.2	88	34.0	0	0	---	0.00	29.936 
05:55	37.2	37.2	37.2	89	34.3	0	0	---	0.00	29.936 
06:00	37.2	37.2	37.2	89	34.3	0	0	---	0.00	29.939 
06:05	37.2	37.2	37.2	89	34.3	0	0	---	0.00	29.939 
06:10	37.2	37.2	37.2	89	34.3	0	0	---	0.00	29.939 
06:15	37.0	37.0	37.0	89	34.1	0	0	---	0.00	29.944 
06:20	37.0	37.0	37.0	89	34.1	0	0	---	0.00	29.944 
06:25	37.0	37.0	37.0	90	34.3	0	0	---	0.00	29.944 
06:30	37.0	37.0	37.0	90	34.3	0	0	---	0.00	29.948 
06:35	37.0	37.0	37.0	90	34.3	0	0	---	0.00	29.948 
06:40	37.0	37.0	37.0	90	34.3	0	0	---	0.00	29.948 
06:45	37.0	37.0	37.0	90	34.3	0	0	---	0.00	29.957 
06:50	37.2	37.2	37.2	91	34.8	0	0	---	0.00	29.957 
06:55	37.3	37.3	37.3	91	34.9	0	0	---	0.00	29.957 
07:00	38.0	38.0	38.0	92	35.9	1	3	315	0.00	29.960 
07:05	38.9	38.9	38.9	92	36.8	0	1	0	0.00	29.960 
07:10	39.9	39.9	39.9	92	37.8	1	3	112	0.00	29.960 
07:15	40.6	40.6	40.6	90	37.9	2	6	112	0.00	29.972 
07:20	40.8	40.8	40.8	88	37.5	2	6	112	0.00	29.972 
07:25	40.6	40.6	40.6	87	37.0	1	5	135	0.00	29.972 
07:30	40.5	40.5	40.5	85	36.4	2	6	22	0.00	29.982 
07:35	40.3	40.3	40.3	84	35.9	1	5	22	0.00	29.982 
07:40	40.1	40.1	40.1	84	35.7	2	9	112	0.00	29.982 
07:45	39.9	39.9	39.9	84	35.5	2	9	45	0.00	29.991 
07:50	39.8	39.8	39.8	84	35.4	2	10	45	0.00	29.991 
07:55	39.5	39.5	39.5	85	35.4	3	12	112	0.00	29.991 
08:00	39.3	39.3	39.3	85	35.2	2	7	22	0.00	30.002 
08:05	39.2	39.2	39.2	85	35.1	2	9	112	0.00	30.002 
08:10	39.1	36.3	39.1	85	35.0	4	14	112	0.00	30.002 
08:15	38.9	34.4	38.9	86	35.1	6	14	112	0.00	30.009 
08:20	38.9	38.9	38.9	86	35.1	2	10	112	0.00	30.009 
08:25	38.8	38.8	38.8	86	35.0	2	5	90	0.00	30.009 
08:30	38.8	38.8	38.8	86	35.0	2	6	90	0.00	30.013 
08:35	38.8	34.3	38.8	85	34.7	6	13	112	0.00	30.013 
08:40	38.8	38.8	38.8	85	34.7	3	7	112	0.00	30.013 
08:45	38.9	36.0	38.9	84	34.5	4	12	112	0.00	30.022 
08:50	39.1	39.1	39.1	84	34.7	3	11	112	0.00	30.022 
08:55	39.1	36.3	39.1	84	34.7	4	10	112	0.00	30.022 
09:00	39.1	39.1	39.1	84	34.7	3	11	112	0.00	30.030 
09:05	39.1	39.1	39.1	84	34.7	2	5	90	0.00	30.030 
09:10	39.1	36.3	39.1	83	34.4	4	10	90	0.00	30.030 
09:15	39.2	39.2	39.2	82	34.2	3	11	112	0.00	30.039 
09:20	39.5	39.5	39.5	82	34.5	3	10	112	0.00	30.039 
09:25	39.8	39.8	39.8	82	34.8	2	5	90	0.00	30.039 
09:30	40.1	37.4	40.1	81	34.7	4	11	112	0.00	30.042 
09:35	40.3	40.3	40.3	80	34.6	2	7	112	0.00	30.042 
09:40	40.6	40.6	40.6	78	34.3	2	6	112	0.00	30.042 
09:45	40.8	36.7	40.8	77	34.2	6	14	112	0.00	30.043 
09:50	40.9	36.8	40.9	77	34.3	6	11	112	0.00	30.043 
09:55	41.2	38.7	41.2	76	34.2	4	10	90	0.00	30.043 
10:00	41.5	38.2	41.5	74	33.8	5	14	112	0.00	30.053 
10:05	41.6	37.7	41.6	74	33.9	6	14	112	0.00	30.053 
10:10	41.9	39.5	41.9	73	33.9	4	12	112	0.00	30.053 
10:15	42.1	38.9	42.1	74	34.4	5	11	112	0.00	30.059 
10:20	42.2	39.1	42.2	73	34.2	5	10	112	0.00	30.059 
10:25	42.3	40.0	42.3	73	34.3	4	11	112	0.00	30.059 
10:30	42.3	38.5	42.3	73	34.3	6	12	112	0.00	30.058 
10:35	42.5	39.4	42.5	73	34.5	5	12	112	0.00	30.058 
10:40	42.6	42.6	42.6	73	34.6	3	10	112	0.00	30.058 
10:45	42.6	38.9	42.6	72	34.2	6	13	112	0.00	30.057 
10:50	43.1	40.1	43.1	72	34.7	5	15	90	0.00	30.057 
10:55	43.5	40.6	43.5	71	34.7	5	15	112	0.00	30.057 
11:00	43.6	40.7	43.6	71	34.8	5	13	112	0.00	30.053 
11:05	43.9	41.1	43.9	70	34.8	5	11	112	0.00	30.053 
11:10	44.1	44.1	44.1	69	34.6	3	10	112	0.00	30.053 
11:15	44.3	40.9	44.3	69	34.8	6	14	112	0.00	30.058 
11:20	44.5	41.8	44.5	70	35.3	5	13	112	0.00	30.058 
11:25	44.6	41.9	44.6	69	35.1	5	12	112	0.00	30.058 
11:30	44.6	42.6	44.6	69	35.1	4	12	112	0.00	30.059 
11:35	45.1	45.1	45.1	69	35.5	3	11	112	0.00	30.059 
11:40	45.4	43.6	45.4	69	35.8	4	12	112	0.00	30.059 
11:45	45.5	43.7	45.5	67	35.2	4	11	112	0.00	30.056 
11:50	46.0	46.0	46.0	67	35.7	3	11	112	0.00	30.056 
11:55	46.2	46.2	46.2	66	35.5	3	9	112	0.00	30.056 
12:00	46.2	43.8	46.2	67	35.9	5	13	112	0.00	30.056 
12:05	46.7	46.7	46.7	67	36.3	3	9	112	0.00	30.056 
12:10	47.0	45.4	47.0	67	36.6	4	12	112	0.00	30.056 
12:15	47.0	45.4	47.0	67	36.6	4	12	112	0.00	30.058 
12:20	47.6	47.6	47.6	65	36.4	3	10	90	0.00	30.058 
12:25	47.7	46.2	47.7	66	36.9	4	11	112	0.00	30.058 
12:30	47.9	46.4	47.9	67	37.5	4	11	90	0.00	30.057 
12:35	48.2	46.1	48.2	65	37.0	5	13	112	0.00	30.057 
12:40	48.3	48.3	48.3	66	37.5	3	11	112	0.00	30.057 
12:45	48.6	48.6	48.6	65	37.4	3	9	112	0.00	30.057 
12:50	48.8	47.5	48.8	66	38.0	4	10	112	0.00	30.057 
12:55	48.8	48.8	48.8	66	38.0	2	7	112	0.00	30.057 
13:00	49.1	49.1	49.1	64	37.5	3	9	112	0.00	30.056 
13:05	49.4	49.4	49.4	63	37.3	3	7	112	0.00	30.056 
13:10	49.5	49.5	49.5	63	37.4	3	9	45	0.00	30.056 
13:15	49.8	49.8	49.8	64	38.1	2	10	112	0.00	30.058 
13:20	50.1	50.1	50.1	63	38.0	2	5	45	0.00	30.058 
13:25	50.2	50.2	50.2	65	38.9	2	10	112	0.00	30.058 
13:30	50.4	50.4	50.4	62	37.9	3	10	112	0.00	30.047 
13:35	50.2	50.2	50.2	63	38.1	3	11	22	0.00	30.047 
13:40	50.4	50.4	50.4	63	38.3	4	12	112	0.00	30.047 
13:45	50.5	50.5	50.5	63	38.4	3	10	22	0.00	30.044 
13:50	50.7	50.7	50.7	63	38.6	4	12	112	0.00	30.044 
13:55	50.8	50.8	50.8	64	39.1	3	10	90	0.00	30.044 
14:00	51.0	51.0	51.0	61	38.0	3	6	90	0.00	30.046 
14:05	51.0	51.0	51.0	61	38.0	3	12	112	0.00	30.046 
14:10	51.3	51.3	51.3	62	38.7	3	9	90	0.00	30.046 
14:15	51.7	51.7	51.7	62	39.1	3	10	112	0.00	30.046 
14:20	51.4	51.4	51.4	61	38.4	5	13	112	0.00	30.046 
14:25	51.6	51.6	51.6	61	38.6	3	9	112	0.00	30.046 
14:30	51.7	51.7	51.7	61	38.7	4	12	112	0.00	30.042 
14:35	52.2	52.2	52.2	62	39.6	3	9	112	0.00	30.042 
14:40	52.3	52.3	52.3	62	39.7	3	9	112	0.00	30.042 
14:45	52.5	52.5	52.5	61	39.4	3	10	112	0.00	30.029 
14:50	52.6	52.6	52.6	61	39.5	3	11	22	0.00	30.029 
14:55	52.8	52.8	52.8	59	38.9	3	10	112	0.00	30.029 
15:00	52.9	52.9	52.9	60	39.4	3	7	0	0.00	30.027 
15:05	52.9	52.9	52.9	59	39.0	3	10	68	0.00	30.027 
15:10	53.1	53.1	53.1	60	39.6	3	10	112	0.00	30.027 
15:15	53.2	53.2	53.2	60	39.7	3	12	22	0.00	30.029 
15:20	53.3	53.3	53.3	60	39.8	2	11	45	0.00	30.029 
15:25	53.3	53.3	53.3	59	39.3	4	14	112	0.00	30.029 
15:30	53.3	53.3	53.3	61	40.2	2	6	45	0.00	30.027 
15:35	53.3	53.3	53.3	58	38.9	3	9	45	0.00	30.027 
15:40	53.2	53.2	53.2	58	38.8	2	6	112	0.00	30.027 
15:45	53.2	53.2	53.2	59	39.2	4	11	112	0.00	30.031 
15:50	53.2	53.2	53.2	60	39.7	3	13	22	0.00	30.031 
15:55	53.1	53.1	53.1	59	39.2	3	7	112	0.00	30.031 
16:00	53.3	53.3	53.3	60	39.8	2	7	90	0.00	30.036 
16:05	53.5	53.5	53.5	60	40.0	3	7	112	0.00	30.036 
16:10	53.3	53.3	53.3	59	39.3	3	10	112	0.00	30.036 
16:15	53.2	53.2	53.2	58	38.8	3	8	112	0.00	30.043 
16:20	53.1	53.1	53.1	58	38.7	3	12	112	0.00	30.043 
16:25	52.8	52.8	52.8	59	38.9	4	8	112	0.00	30.043 
16:30	52.8	52.8	52.8	60	39.3	2	6	135	0.00	30.045 
16:35	52.6	52.6	52.6	60	39.1	4	11	112	0.00	30.045 
16:40	52.6	52.6	52.6	60	39.1	2	7	112	0.00	30.045 
16:45	52.8	52.8	52.8	59	38.9	2	9	135	0.00	30.045 
16:50	52.6	52.6	52.6	59	38.7	4	13	112	0.00	30.045 
16:55	52.2	52.2	52.2	60	38.7	4	10	112	0.00	30.045 
17:00	52.0	52.0	52.0	60	38.5	3	8	22	0.00	30.045 
17:05	51.7	51.7	51.7	61	38.7	3	10	22	0.00	30.045 
17:10	51.7	51.7	51.7	62	39.1	3	10	112	0.00	30.045 
17:15	51.6	51.6	51.6	61	38.6	3	10	22	0.00	30.047 
17:20	51.3	51.3	51.3	62	38.7	3	7	112	0.00	30.047 
17:25	50.7	50.7	50.7	62	38.2	5	12	112	0.00	30.047 
17:30	50.5	50.5	50.5	62	38.0	3	9	45	0.00	30.049 
17:35	50.2	50.2	50.2	62	37.7	4	11	112	0.00	30.049 
17:40	49.9	49.9	49.9	63	37.8	3	7	135	0.00	30.049 
17:45	49.4	48.2	49.4	64	37.7	4	11	112	0.00	30.052 
17:50	49.1	49.1	49.1	64	37.5	2	7	45	0.00	30.052 
17:55	48.8	48.8	48.8	65	37.6	3	7	45	0.00	30.052 
18:00	48.8	48.8	48.8	64	37.2	2	10	68	0.00	30.054 
18:05	48.6	48.6	48.6	65	37.4	3	10	68	0.00	30.054 
18:10	48.6	48.6	48.6	65	37.4	2	6	68	0.00	30.054 
18:15	48.5	48.5	48.5	65	37.3	3	13	112	0.00	30.059 
18:20	48.3	48.3	48.3	65	37.1	2	7	112	0.00	30.059 
18:25	48.2	48.2	48.2	65	37.0	3	7	112	0.00	30.059 
18:30	48.0	48.0	48.0	66	37.2	3	7	112	0.00	30.057 
18:35	48.0	48.0	48.0	66	37.2	2	10	112	0.00	30.057 
18:40	47.9	47.9	47.9	66	37.1	1	7	90	0.00	30.057 
18:45	47.9	47.9	47.9	66	37.1	2	8	112	0.00	30.061 
18:50	47.7	47.7	47.7	66	36.9	2	9	112	0.00	30.061 
18:55	47.7	47.7	47.7	66	36.9	2	5	45	0.00	30.061 
19:00	47.7	47.7	47.7	66	36.9	3	5	112	0.00	30.064 
19:05	47.6	47.6	47.6	66	36.8	2	5	45	0.00	30.064 
19:10	47.6	47.6	47.6	66	36.8	2	11	68	0.00	30.064 
19:15	47.4	47.4	47.4	67	37.0	2	5	68	0.00	30.066 
19:20	47.0	47.0	47.0	66	36.2	3	6	45	0.00	30.066 
19:25	46.5	46.5	46.5	67	36.1	2	9	22	0.00	30.066 
19:30	46.1	46.1	46.1	67	35.8	2	6	22	0.00	30.074 
19:35	45.8	45.8	45.8	67	35.5	2	5	22	0.00	30.074 
19:40	45.5	45.5	45.5	67	35.2	2	5	90	0.00	30.074 
19:45	45.4	45.4	45.4	66	34.7	2	7	112	0.00	30.081 
19:50	45.2	45.2	45.2	66	34.5	3	7	112	0.00	30.081 
19:55	45.1	45.1	45.1	66	34.4	2	6	112	0.00	30.081 
20:00	44.9	44.9	44.9	65	33.9	3	7	45	0.00	30.082 
20:05	44.8	42.9	44.8	65	33.8	4	11	112	0.00	30.082 
20:10	44.6	44.6	44.6	65	33.6	3	9	112	0.00	30.082 
20:15	44.5	44.5	44.5	66	33.9	1	4	112	0.00	30.083 
20:20	44.3	44.3	44.3	66	33.7	1	4	45	0.00	30.083 
20:25	44.1	44.1	44.1	65	33.1	3	13	112	0.00	30.083 
20:30	43.9	43.9	43.9	65	32.9	3	10	22	0.00	30.087 
20:35	43.8	43.8	43.8	65	32.8	3	7	112	0.00	30.087 
20:40	43.6	43.6	43.6	65	32.6	3	7	112	0.00	30.087 
20:45	43.3	40.3	43.3	65	32.3	5	14	112	0.00	30.090 
20:50	43.2	43.2	43.2	65	32.2	3	10	90	0.00	30.090 
20:55	42.9	40.7	42.9	66	32.3	4	12	112	0.00	30.090 
21:00	42.8	42.8	42.8	66	32.2	3	9	45	0.00	30.099 
21:05	42.5	40.2	42.5	67	32.3	4	11	112	0.00	30.099 
21:10	42.3	42.3	42.3	67	32.1	2	10	112	0.00	30.099 
21:15	42.2	42.2	42.2	67	32.0	2	6	68	0.00	30.101 
21:20	41.9	41.9	41.9	68	32.1	3	11	112	0.00	30.101 
21:25	41.8	41.8	41.8	68	32.0	2	9	112	0.00	30.101 
21:30	41.6	41.6	41.6	69	32.2	3	10	90	0.00	30.113 
21:35	41.6	41.6	41.6	69	32.2	2	6	90	0.00	30.113 
21:40	41.5	41.5	41.5	69	32.1	2	8	112	0.00	30.113 
21:45	41.3	41.3	41.3	69	31.9	2	6	112	0.00	30.130 
21:50	41.1	41.1	41.1	70	32.1	2	6	112	0.00	30.130 
21:55	40.9	40.9	40.9	70	31.9	2	8	112	0.00	30.130 
22:00	40.8	40.8	40.8	71	32.1	3	10	45	0.00	30.116 
22:05	40.6	40.6	40.6	71	31.9	3	12	90	0.00	30.116 
22:10	40.5	37.9	40.5	72	32.2	4	14	112	0.00	30.116 
22:15	40.3	40.3	40.3	72	32.0	3	11	112	0.00	30.115 
22:20	40.2	40.2	40.2	74	32.6	3	10	90	0.00	30.115 
22:25	40.1	37.4	40.1	75	32.8	4	10	90	0.00	30.115 
22:30	39.9	39.9	39.9	75	32.6	3	7	90	0.00	30.118 
22:35	39.8	39.8	39.8	75	32.5	2	7	112	0.00	30.118 
22:40	39.6	39.6	39.6	76	32.7	3	11	112	0.00	30.118 
22:45	39.6	39.6	39.6	76	32.7	2	7	112	0.00	30.118 
22:50	39.6	39.6	39.6	76	32.7	2	7	45	0.00	30.118 
22:55	39.5	39.5	39.5	76	32.6	2	7	112	0.00	30.118 
23:00	39.5	39.5	39.5	76	32.6	2	7	112	0.00	30.127 
23:05	39.3	39.3	39.3	76	32.4	3	10	90	0.00	30.127 
23:10	39.3	39.3	39.3	76	32.4	2	6	90	0.00	30.127 
23:15	39.2	39.2	39.2	76	32.3	2	11	90	0.00	30.129 
23:20	39.2	36.4	39.2	76	32.3	4	14	90	0.00	30.129 
23:25	39.2	36.4	39.2	77	32.6	4	10	112	0.00	30.129 
23:30	39.1	39.1	39.1	78	32.8	2	7	90	0.00	30.120 
23:35	38.8	38.8	38.8	78	32.5	3	12	112	0.00	30.120 
23:40	38.6	38.6	38.6	78	32.3	3	11	22	0.00	30.120 
23:45	38.5	38.5	38.5	78	32.2	3	12	90	0.00	30.114 
23:50	38.3	38.3	38.3	78	32.1	3	9	90	0.00	30.114 
23:55	38.2	38.2	38.2	77	31.6	3	10	90	0.00	30.114 

CoCoRaHS
IN-AL-39
A2 Web Hosting
Creative Commons License
GoDaddy
search engine by freefind advanced

loaded 2018-11-16 23:22:10 • last modified 2010-11-18 10:43:29
Privacy PolicyDisclaimer
• wx.awcolley.com is powered by PmWiki v.2002016 •
• all content (unless otherwise noted) © 2018 A W Colley